Time;durP1;ratioP1;P1;durP2;ratioP2;P2;SDS_P1;SDS_P2;PMS_P1;PMS_P2;Temp;Humidity;BMP_temperature;BMP_pressure;BME280_temperature;BME280_humidity;BME280_pressure;Samples;Min_cycle;Max_cycle;Signal;HPM_P1;HPM_P2
2023/11/05 00:01:46;;;;;;;2.08;1.20;;;8.40;99.90;;;;;;5008677;28;20164;-63
2023/11/05 00:04:12;;;;;;;5.57;1.40;;;8.40;99.90;;;;;;5008183;28;20523;-62
2023/11/05 00:06:37;;;;;;;5.80;1.65;;;8.30;99.90;;;;;;5008753;28;20080;-62
2023/11/05 00:09:03;;;;;;;4.07;1.75;;;8.30;99.90;;;;;;5008724;28;20046;-61
2023/11/05 00:11:29;;;;;;;9.73;1.80;;;8.30;99.90;;;;;;5008658;28;20104;-61
2023/11/05 00:13:54;;;;;;;2.05;1.27;;;8.30;99.90;;;;;;5008175;28;20087;-61
2023/11/05 00:16:20;;;;;;;2.30;1.40;;;8.30;99.90;;;;;;5008336;28;20030;-61
2023/11/05 00:18:45;;;;;;;3.88;1.45;;;8.30;99.90;;;;;;5004034;28;20023;-61
2023/11/05 00:21:11;;;;;;;4.50;1.50;;;8.30;99.90;;;;;;5006701;28;20022;-61
2023/11/05 00:23:36;;;;;;;3.80;1.40;;;8.20;99.90;;;;;;5003687;28;20070;-61
2023/11/05 00:26:02;;;;;;;1.50;1.40;;;8.20;99.90;;;;;;5004741;28;20227;-61
2023/11/05 00:28:27;;;;;;;2.83;1.65;;;8.20;99.90;;;;;;5008744;28;20038;-61
2023/11/05 00:30:53;;;;;;;3.60;1.92;;;8.20;99.90;;;;;;5012914;28;20025;-60
2023/11/05 00:33:18;;;;;;;5.32;1.83;;;8.20;99.90;;;;;;5012630;28;20104;-60
2023/11/05 00:35:44;;;;;;;2.30;1.63;;;8.20;99.90;;;;;;5012121;28;20102;-61
2023/11/05 00:38:13;;;;;;;2.55;1.50;;;8.20;99.90;;;;;;5008825;28;20045;-61
2023/11/05 00:40:38;;;;;;;3.72;1.42;;;8.20;99.90;;;;;;5012426;28;20462;-61
2023/11/05 00:43:04;;;;;;;2.35;1.65;;;8.20;99.90;;;;;;5012492;28;20022;-61
2023/11/05 00:45:30;;;;;;;4.40;2.00;;;8.20;99.90;;;;;;5006919;28;20037;-62
2023/11/05 00:47:56;;;;;;;2.10;1.55;;;8.20;99.90;;;;;;5008317;28;20109;-62
2023/11/05 00:50:23;;;;;;;4.60;2.00;;;8.20;99.90;;;;;;5012077;28;20033;-61
2023/11/05 00:52:48;;;;;;;7.00;2.13;;;8.20;99.90;;;;;;5007605;28;20030;-61
2023/11/05 00:55:14;;;;;;;7.50;2.28;;;8.30;99.90;;;;;;5009740;28;20033;-62
2023/11/05 00:57:41;;;;;;;12.25;2.10;;;8.20;99.90;;;;;;5011857;28;20040;-62
2023/11/05 01:00:08;;;;;;;3.25;2.00;;;8.20;99.90;;;;;;5011769;28;20022;-62
2023/11/05 01:02:35;;;;;;;5.45;1.73;;;8.30;99.90;;;;;;5011988;28;20411;-62
2023/11/05 01:05:01;;;;;;;8.30;2.30;;;8.30;99.90;;;;;;5011226;28;20042;-61
2023/11/05 01:07:27;;;;;;;4.78;1.88;;;8.30;99.90;;;;;;5011816;28;20026;-61
2023/11/05 01:09:52;;;;;;;2.55;1.80;;;8.30;99.90;;;;;;5011930;28;20042;-61
2023/11/05 01:12:18;;;;;;;3.67;1.90;;;8.30;99.90;;;;;;5011705;28;20490;-61
2023/11/05 01:14:43;;;;;;;4.03;2.17;;;8.40;99.90;;;;;;5011138;28;20076;-61
2023/11/05 01:17:12;;;;;;;3.35;1.80;;;8.30;99.90;;;;;;5011758;28;20025;-61
2023/11/05 01:19:38;;;;;;;5.60;1.63;;;8.30;99.90;;;;;;5006966;28;20022;-62
2023/11/05 01:22:04;;;;;;;3.08;1.90;;;8.40;99.90;;;;;;5008721;28;20014;-62
2023/11/05 01:24:29;;;;;;;3.33;2.05;;;8.30;99.90;;;;;;5011526;28;20383;-62
2023/11/05 01:26:55;;;;;;;2.35;1.70;;;8.30;99.90;;;;;;5011861;28;20037;-62
2023/11/05 01:29:20;;;;;;;4.68;1.80;;;8.30;99.90;;;;;;5011779;28;21521;-62
2023/11/05 01:31:46;;;;;;;2.38;1.90;;;8.30;99.90;;;;;;5006943;28;20033;-62
2023/11/05 01:34:12;;;;;;;3.50;1.63;;;8.30;99.90;;;;;;5009073;28;20026;-62
2023/11/05 01:36:37;;;;;;;7.97;3.20;;;8.30;99.90;;;;;;5011593;28;20055;-62
2023/11/05 01:39:03;;;;;;;4.15;1.83;;;8.30;99.90;;;;;;5011376;28;20589;-62
2023/11/05 01:41:28;;;;;;;2.47;1.40;;;8.20;99.90;;;;;;5009989;28;20038;-62
2023/11/05 01:43:54;;;;;;;5.57;1.90;;;8.10;99.90;;;;;;5010847;28;20124;-62
2023/11/05 01:46:20;;;;;;;2.38;1.73;;;8.20;99.90;;;;;;5011081;28;20036;-63
2023/11/05 01:48:45;;;;;;;4.40;1.60;;;8.20;99.90;;;;;;5006559;28;20022;-62
2023/11/05 01:51:13;;;;;;;4.68;1.75;;;8.10;99.90;;;;;;5009144;28;20041;-63
2023/11/05 01:53:42;;;;;;;3.95;1.70;;;8.10;99.90;;;;;;5010754;28;20029;-62
2023/11/05 01:56:08;;;;;;;6.65;2.20;;;8.10;99.90;;;;;;5010919;28;20105;-62
2023/11/05 01:58:33;;;;;;;3.08;1.40;;;8.10;99.90;;;;;;5010962;28;20100;-62
2023/11/05 02:00:59;;;;;;;2.92;1.50;;;8.10;99.90;;;;;;5010898;28;20054;-62
2023/11/05 02:03:24;;;;;;;11.05;3.35;;;8.10;99.90;;;;;;5010674;28;20030;-62
2023/11/05 02:05:50;;;;;;;8.43;1.70;;;8.10;99.90;;;;;;5010318;28;20029;-62
2023/11/05 02:08:16;;;;;;;2.83;1.70;;;8.10;99.90;;;;;;5010615;28;20018;-62
2023/11/05 02:10:41;;;;;;;6.53;1.77;;;8.10;99.90;;;;;;5010584;28;20127;-62
2023/11/05 02:13:07;;;;;;;3.85;1.65;;;8.10;99.90;;;;;;5006491;28;20538;-62
2023/11/05 02:15:33;;;;;;;5.90;1.52;;;8.10;99.90;;;;;;5010369;28;20045;-62
2023/11/05 02:17:58;;;;;;;4.35;1.65;;;8.20;99.90;;;;;;5006153;28;20085;-62
2023/11/05 02:20:24;;;;;;;6.03;1.70;;;8.20;99.90;;;;;;5010225;28;20037;-62
2023/11/05 02:22:52;;;;;;;1.55;1.42;;;8.20;99.90;;;;;;5005825;28;20081;-62
2023/11/05 02:25:19;;;;;;;2.60;2.33;;;8.20;99.90;;;;;;5008653;28;20038;-62
2023/11/05 02:27:50;;;;;;;2.95;1.58;;;8.20;99.90;;;;;;5010362;28;20533;-62
2023/11/05 02:30:18;;;;;;;4.40;1.40;;;8.30;99.90;;;;;;5010578;28;20030;-62
2023/11/05 02:32:43;;;;;;;2.20;1.42;;;8.30;99.90;;;;;;5010134;28;20018;-63
2023/11/05 02:35:09;;;;;;;2.95;1.27;;;8.30;99.90;;;;;;5009988;28;20200;-63
2023/11/05 02:37:35;;;;;;;1.65;1.40;;;8.40;99.90;;;;;;5010099;28;20076;-63
2023/11/05 02:40:00;;;;;;;4.55;1.60;;;8.40;99.90;;;;;;5010031;28;20099;-63
2023/11/05 02:42:25;;;;;;;1.92;1.50;;;8.40;99.90;;;;;;5010053;28;20042;-63
2023/11/05 02:44:51;;;;;;;3.38;1.30;;;8.40;99.90;;;;;;5007764;28;20084;-63
2023/11/05 02:47:17;;;;;;;4.13;2.28;;;8.40;99.90;;;;;;5009813;28;20414;-63
2023/11/05 02:49:42;;;;;;;4.43;1.60;;;8.50;99.90;;;;;;5010011;28;20271;-62
2023/11/05 02:52:08;;;;;;;9.45;1.75;;;8.40;99.90;;;;;;5009213;28;20550;-63
2023/11/05 02:54:33;;;;;;;5.10;2.20;;;8.40;99.90;;;;;;5009272;28;20018;-63
2023/11/05 02:57:00;;;;;;;3.45;1.30;;;8.40;99.90;;;;;;5010017;28;20018;-63
2023/11/05 02:59:25;;;;;;;1.73;1.10;;;8.50;99.90;;;;;;5009295;28;20029;-63
2023/11/05 03:01:51;;;;;;;3.03;1.75;;;8.50;99.90;;;;;;5009766;28;20018;-63
2023/11/05 03:04:18;;;;;;;6.97;2.08;;;8.50;99.90;;;;;;5009310;28;20026;-63
2023/11/05 03:06:49;;;;;;;5.25;1.42;;;8.50;99.90;;;;;;5005126;28;20030;-64
2023/11/05 03:09:17;;;;;;;4.88;1.77;;;8.50;99.90;;;;;;5005626;28;20447;-64
2023/11/05 03:11:44;;;;;;;5.38;1.70;;;8.50;99.90;;;;;;5009873;28;20026;-63
2023/11/05 03:14:10;;;;;;;7.85;1.77;;;8.50;99.90;;;;;;5009305;28;20342;-63
2023/11/05 03:16:39;;;;;;;2.92;1.60;;;8.50;99.90;;;;;;5009421;28;20068;-63
2023/11/05 03:19:05;;;;;;;7.07;2.00;;;8.50;99.90;;;;;;5009611;28;20108;-63
2023/11/05 03:21:31;;;;;;;4.93;1.40;;;8.50;99.90;;;;;;5004883;28;20023;-63
2023/11/05 03:23:57;;;;;;;2.33;1.58;;;8.40;99.90;;;;;;5000337;28;20439;-64
2023/11/05 03:26:24;;;;;;;6.93;1.75;;;8.40;99.90;;;;;;5008719;28;20041;-64
2023/11/05 03:28:50;;;;;;;2.08;1.42;;;8.40;99.90;;;;;;5009443;28;20093;-64
2023/11/05 03:31:15;;;;;;;7.88;1.90;;;8.40;99.90;;;;;;5009771;28;20494;-63
2023/11/05 03:33:42;;;;;;;7.95;1.77;;;8.40;99.90;;;;;;5004657;28;20026;-64
2023/11/05 03:36:08;;;;;;;4.32;1.77;;;8.40;99.90;;;;;;5006192;28;20387;-64
2023/11/05 03:38:34;;;;;;;4.38;1.50;;;8.40;99.90;;;;;;5009157;28;20372;-63
2023/11/05 03:40:59;;;;;;;10.23;2.10;;;8.40;99.90;;;;;;5008361;28;20349;-64
2023/11/05 03:43:26;;;;;;;1.90;1.40;;;8.40;99.90;;;;;;5009019;28;20061;-64
2023/11/05 03:45:52;;;;;;;4.93;1.88;;;8.40;99.90;;;;;;5008532;28;20077;-64
2023/11/05 03:48:17;;;;;;;3.13;1.33;;;8.50;99.90;;;;;;5008805;28;20092;-64
2023/11/05 03:50:43;;;;;;;7.05;1.92;;;8.50;99.90;;;;;;5008635;28;20046;-63
2023/11/05 03:53:08;;;;;;;8.55;1.85;;;8.50;99.90;;;;;;5008907;28;20542;-64
2023/11/05 03:55:34;;;;;;;6.85;1.73;;;8.40;99.90;;;;;;5008330;28;20542;-64
2023/11/05 03:58:00;;;;;;;9.07;1.75;;;8.40;99.90;;;;;;5004196;28;20026;-64
2023/11/05 04:00:25;;;;;;;5.15;1.67;;;8.40;99.90;;;;;;5009005;28;20018;-64
2023/11/05 04:02:51;;;;;;;3.08;1.70;;;8.50;99.90;;;;;;5003985;28;20030;-63
2023/11/05 04:05:16;;;;;;;4.95;1.35;;;8.50;99.90;;;;;;5006691;28;20034;-63
2023/11/05 04:07:42;;;;;;;5.60;1.52;;;8.50;99.90;;;;;;5008768;28;20186;-64
2023/11/05 04:10:08;;;;;;;10.95;1.90;;;8.50;99.90;;;;;;5008734;28;20030;-63
2023/11/05 04:12:34;;;;;;;13.70;2.33;;;8.50;99.90;;;;;;5008590;28;20030;-63
2023/11/05 04:15:04;;;;;;;7.55;2.10;;;8.50;99.90;;;;;;5008339;28;20044;-63
2023/11/05 04:17:30;;;;;;;8.30;2.20;;;8.50;99.90;;;;;;5008738;28;20018;-61
2023/11/05 04:19:55;;;;;;;7.07;1.75;;;8.50;99.90;;;;;;5003858;28;20046;-61
2023/11/05 04:22:21;;;;;;;9.88;2.20;;;8.50;99.90;;;;;;5005893;28;20029;-61
2023/11/05 04:24:46;;;;;;;9.30;1.90;;;8.60;99.90;;;;;;5008207;28;20030;-63
2023/11/05 04:27:12;;;;;;;5.03;1.80;;;8.60;99.90;;;;;;5004525;28;20125;-61
2023/11/05 04:29:37;;;;;;;6.07;1.60;;;8.60;99.90;;;;;;4997628;28;20061;-62
2023/11/05 04:32:03;;;;;;;5.97;2.30;;;8.60;99.90;;;;;;4996717;28;20096;-62
2023/11/05 04:34:32;;;;;;;7.35;1.83;;;8.60;99.90;;;;;;4998569;28;20018;-62
2023/11/05 04:36:57;;;;;;;5.10;1.70;;;8.60;99.90;;;;;;4998837;28;20091;-62
2023/11/05 04:39:23;;;;;;;11.05;2.78;;;8.60;99.90;;;;;;5008420;28;20026;-62
2023/11/05 04:41:49;;;;;;;5.03;1.77;;;8.60;99.90;;;;;;5003898;28;20025;-62
2023/11/05 04:44:14;;;;;;;5.60;1.77;;;8.60;99.90;;;;;;5006499;28;20046;-62
2023/11/05 04:46:40;;;;;;;5.50;1.80;;;8.70;99.90;;;;;;5007318;28;20431;-62
2023/11/05 04:49:06;;;;;;;6.10;2.67;;;8.70;99.90;;;;;;5001284;28;20488;-62
2023/11/05 04:51:31;;;;;;;9.20;1.90;;;8.70;99.90;;;;;;5008309;28;20026;-62
2023/11/05 04:53:57;;;;;;;2.83;1.45;;;8.60;99.90;;;;;;5007885;28;20371;-62
2023/11/05 04:56:22;;;;;;;5.82;1.85;;;8.70;99.90;;;;;;5008139;28;20032;-63
2023/11/05 04:58:48;;;;;;;7.53;2.47;;;8.70;99.90;;;;;;5008254;28;20044;-62
2023/11/05 05:01:13;;;;;;;8.02;1.98;;;8.60;99.90;;;;;;5008086;28;20025;-62
2023/11/05 05:03:39;;;;;;;4.53;2.00;;;8.70;99.90;;;;;;5008098;28;20030;-62
2023/11/05 05:06:05;;;;;;;7.30;2.00;;;8.70;99.90;;;;;;5007771;28;20164;-62
2023/11/05 05:08:31;;;;;;;11.70;2.40;;;8.70;99.90;;;;;;5008609;28;20097;-62
2023/11/05 05:10:56;;;;;;;6.00;2.05;;;8.70;99.90;;;;;;5009060;28;20022;-62
2023/11/05 05:13:22;;;;;;;5.53;1.85;;;8.70;99.90;;;;;;5008505;28;20038;-62
2023/11/05 05:15:47;;;;;;;7.70;1.73;;;8.80;99.90;;;;;;5009681;28;20050;-62
2023/11/05 05:18:13;;;;;;;6.97;1.73;;;8.80;99.90;;;;;;5010575;28;20033;-62
2023/11/05 05:20:38;;;;;;;12.80;1.98;;;8.70;99.90;;;;;;4992015;28;20022;-62
2023/11/05 05:23:04;;;;;;;7.22;2.03;;;8.70;99.90;;;;;;5001333;28;20018;-62
2023/11/05 05:25:30;;;;;;;6.22;1.45;;;8.60;99.90;;;;;;5000918;28;20446;-62
2023/11/05 05:27:56;;;;;;;7.10;1.58;;;8.70;99.90;;;;;;5000184;28;20030;-62
2023/11/05 05:30:21;;;;;;;10.18;1.98;;;8.80;99.90;;;;;;4999008;28;20566;-62
2023/11/05 05:32:47;;;;;;;7.32;2.10;;;8.90;99.90;;;;;;5000585;28;20076;-61
2023/11/05 05:35:13;;;;;;;3.80;1.85;;;9.00;99.90;;;;;;4998042;28;20068;-62
2023/11/05 05:37:38;;;;;;;8.80;2.10;;;9.10;99.90;;;;;;4999606;28;20037;-62
2023/11/05 05:40:04;;;;;;;6.10;1.63;;;9.10;99.90;;;;;;4999087;28;20064;-62
2023/11/05 05:42:30;;;;;;;5.30;1.90;;;9.20;99.90;;;;;;5000269;28;20030;-61
2023/11/05 05:44:56;;;;;;;8.02;1.58;;;9.20;99.90;;;;;;4999571;28;20398;-60
2023/11/05 05:47:22;;;;;;;9.68;2.28;;;9.20;99.90;;;;;;4998393;28;20034;-60
2023/11/05 05:49:47;;;;;;;6.35;1.90;;;9.10;99.90;;;;;;5000723;28;20019;-61
2023/11/05 05:52:13;;;;;;;8.68;1.90;;;9.10;99.90;;;;;;4998351;28;20022;-61
2023/11/05 05:54:39;;;;;;;12.15;2.58;;;9.00;99.90;;;;;;4998973;28;20025;-61
2023/11/05 05:57:05;;;;;;;6.85;1.95;;;9.00;99.90;;;;;;4998268;28;20018;-62
2023/11/05 05:59:32;;;;;;;8.38;1.80;;;8.90;99.90;;;;;;4998286;28;20064;-61
2023/11/05 06:01:58;;;;;;;9.30;2.00;;;8.90;99.90;;;;;;5001240;28;20046;-61
2023/11/05 06:04:24;;;;;;;10.63;2.42;;;8.80;99.90;;;;;;4997774;28;20021;-62
2023/11/05 06:06:49;;;;;;;6.32;2.15;;;8.80;99.90;;;;;;5000024;28;20455;-62
2023/11/05 06:09:19;;;;;;;14.05;2.45;;;8.80;99.90;;;;;;5001780;28;20112;-61
2023/11/05 06:11:45;;;;;;;4.60;2.10;;;8.80;99.90;;;;;;5010918;28;20591;-61
2023/11/05 06:14:11;;;;;;;11.55;3.38;;;8.80;99.90;;;;;;5009947;28;20666;-61
2023/11/05 06:16:36;;;;;;;8.52;1.80;;;8.80;99.90;;;;;;5010506;28;20010;-61
2023/11/05 06:19:02;;;;;;;5.93;1.83;;;8.80;99.90;;;;;;5000831;28;20033;-61
2023/11/05 06:21:28;;;;;;;8.20;2.45;;;8.80;99.90;;;;;;5002361;28;20022;-60
2023/11/05 06:23:53;;;;;;;9.88;2.63;;;8.80;99.90;;;;;;5010607;28;20113;-60
2023/11/05 06:26:19;;;;;;;11.48;2.83;;;8.80;99.90;;;;;;5009518;28;20036;-61
2023/11/05 06:28:44;;;;;;;10.25;2.53;;;8.70;99.90;;;;;;5010494;28;20026;-60
2023/11/05 06:31:10;;;;;;;9.15;2.22;;;8.70;99.90;;;;;;5010224;28;20578;-60
2023/11/05 06:33:35;;;;;;;8.45;2.42;;;8.70;99.90;;;;;;5010139;28;20033;-60
2023/11/05 06:36:01;;;;;;;9.50;3.42;;;8.70;99.90;;;;;;5010005;28;20463;-60
2023/11/05 06:38:27;;;;;;;8.15;2.65;;;8.70;99.90;;;;;;5006869;28;20034;-60
2023/11/05 06:40:53;;;;;;;9.60;2.40;;;8.70;99.90;;;;;;4997577;28;20022;-60
2023/11/05 06:43:18;;;;;;;11.05;2.45;;;8.70;99.90;;;;;;5006063;28;20371;-60
2023/11/05 06:45:44;;;;;;;12.35;2.70;;;8.60;99.90;;;;;;5009414;28;20140;-60
2023/11/05 06:48:10;;;;;;;7.68;2.28;;;8.60;99.90;;;;;;5006198;28;20117;-60
2023/11/05 06:50:36;;;;;;;16.52;2.97;;;8.60;99.90;;;;;;5010106;28;20026;-58
2023/11/05 06:53:02;;;;;;;12.90;2.70;;;8.60;99.90;;;;;;5010244;28;20036;-58
2023/11/05 06:55:27;;;;;;;10.77;2.80;;;8.50;99.90;;;;;;5000491;28;20076;-58
2023/11/05 06:57:53;;;;;;;8.55;2.70;;;8.60;99.90;;;;;;5010485;28;20048;-58
2023/11/05 07:00:20;;;;;;;11.10;2.72;;;8.50;99.90;;;;;;5010577;28;20100;-57
2023/11/05 07:02:46;;;;;;;9.63;4.07;;;8.60;99.90;;;;;;5009978;28;20061;-60
2023/11/05 07:05:11;;;;;;;5.47;2.40;;;8.60;99.90;;;;;;5005644;28;20069;-60
2023/11/05 07:07:37;;;;;;;6.55;2.45;;;8.60;99.90;;;;;;5009665;28;20040;-61
2023/11/05 07:10:06;;;;;;;10.57;2.33;;;8.60;99.90;;;;;;5009338;28;20132;-61
2023/11/05 07:12:32;;;;;;;7.15;3.15;;;8.60;99.90;;;;;;5003434;28;20384;-60
2023/11/05 07:14:58;;;;;;;8.20;2.58;;;8.60;99.90;;;;;;4996960;28;20085;-60
2023/11/05 07:17:24;;;;;;;4.65;2.28;;;8.60;99.90;;;;;;4998946;28;20021;-60
2023/11/05 07:19:50;;;;;;;10.45;3.03;;;8.60;99.90;;;;;;5000022;28;20027;-61
2023/11/05 07:22:16;;;;;;;12.48;3.35;;;8.60;99.90;;;;;;5001054;28;20420;-60
2023/11/05 07:24:41;;;;;;;12.13;4.70;;;8.60;99.90;;;;;;4998399;28;20476;-60
2023/11/05 07:27:07;;;;;;;6.88;3.97;;;8.60;99.90;;;;;;5001022;28;20018;-60
2023/11/05 07:29:32;;;;;;;13.63;2.20;;;8.70;99.90;;;;;;4997620;28;20152;-60
2023/11/05 07:31:58;;;;;;;10.27;2.38;;;8.70;99.90;;;;;;4996778;28;20348;-59
2023/11/05 07:34:25;;;;;;;6.50;2.10;;;8.70;99.90;;;;;;4993875;28;20022;-59
2023/11/05 07:36:50;;;;;;;22.95;3.95;;;8.70;99.90;;;;;;4997677;28;20028;-60
2023/11/05 07:39:16;;;;;;;9.27;2.97;;;8.70;99.90;;;;;;4996825;28;20023;-60
2023/11/05 07:41:41;;;;;;;8.90;2.70;;;8.70;99.90;;;;;;4996031;28;20461;-61
2023/11/05 07:44:07;;;;;;;5.18;2.80;;;8.70;99.90;;;;;;4998947;28;20076;-60
2023/11/05 07:46:35;;;;;;;7.07;2.72;;;8.80;99.90;;;;;;4998872;28;20446;-60
2023/11/05 07:49:00;;;;;;;9.23;2.63;;;8.80;99.90;;;;;;4997784;28;20018;-60
2023/11/05 07:51:26;;;;;;;8.25;2.55;;;8.80;99.90;;;;;;4999537;28;20052;-61
2023/11/05 07:53:52;;;;;;;9.10;2.50;;;8.90;99.90;;;;;;5003770;28;20025;-60
2023/11/05 07:56:18;;;;;;;9.63;2.97;;;8.90;99.90;;;;;;5008587;28;20124;-60
2023/11/05 07:58:44;;;;;;;6.60;2.50;;;8.90;99.90;;;;;;5008367;28;20025;-61
2023/11/05 08:01:12;;;;;;;8.45;2.35;;;9.00;99.90;;;;;;5009097;28;20045;-60
2023/11/05 08:03:40;;;;;;;13.30;2.60;;;8.90;99.90;;;;;;5008809;28;20482;-60
2023/11/05 08:06:06;;;;;;;9.05;3.03;;;9.00;99.90;;;;;;5008422;28;20483;-60
2023/11/05 08:08:31;;;;;;;8.07;2.15;;;8.90;99.90;;;;;;5009061;28;20029;-60
2023/11/05 08:10:57;;;;;;;7.10;1.90;;;9.10;99.90;;;;;;5005376;28;20019;-60
2023/11/05 08:13:22;;;;;;;6.65;2.47;;;9.10;99.90;;;;;;5008406;28;20034;-60
2023/11/05 08:15:48;;;;;;;3.00;1.83;;;9.10;99.90;;;;;;5008447;28;20018;-60
2023/11/05 08:18:14;;;;;;;11.23;2.47;;;9.20;99.90;;;;;;4998900;28;20076;-60
2023/11/05 08:20:40;;;;;;;8.43;2.47;;;9.30;99.90;;;;;;4996388;28;20022;-59
2023/11/05 08:23:05;;;;;;;7.65;2.70;;;9.40;99.90;;;;;;5001625;28;20030;-59
2023/11/05 08:25:31;;;;;;;8.32;1.75;;;9.50;99.90;;;;;;5008766;28;20045;-59
2023/11/05 08:27:56;;;;;;;5.13;1.50;;;9.50;99.90;;;;;;4999304;28;20419;-59
2023/11/05 08:30:25;;;;;;;7.25;1.52;;;9.60;99.90;;;;;;5003572;28;20030;-59
2023/11/05 08:32:52;;;;;;;7.35;1.83;;;9.50;99.90;;;;;;5008529;28;20165;-60
2023/11/05 08:35:18;;;;;;;8.38;2.03;;;9.60;99.90;;;;;;5000897;28;20062;-61
2023/11/05 08:37:46;;;;;;;8.57;2.00;;;9.70;99.90;;;;;;5003942;28;20018;-60
2023/11/05 08:40:14;;;;;;;8.02;2.00;;;9.70;99.90;;;;;;5000748;28;20188;-60
2023/11/05 08:42:41;;;;;;;3.53;1.50;;;9.70;99.90;;;;;;5008306;28;20049;-60
2023/11/05 08:45:06;;;;;;;4.18;2.03;;;9.70;99.90;;;;;;5007039;28;20025;-60
2023/11/05 08:47:32;;;;;;;6.38;1.73;;;9.70;99.90;;;;;;4988790;28;20037;-60
2023/11/05 08:49:58;;;;;;;6.15;1.65;;;9.80;99.90;;;;;;4989310;28;20076;-60
2023/11/05 08:52:24;;;;;;;8.38;1.80;;;9.80;99.90;;;;;;4992353;28;20117;-60
2023/11/05 08:54:49;;;;;;;4.53;1.45;;;9.80;99.90;;;;;;4992376;28;20386;-60
2023/11/05 08:57:15;;;;;;;5.15;1.35;;;9.80;99.90;;;;;;4992891;28;20106;-60
2023/11/05 08:59:40;;;;;;;2.95;1.50;;;9.80;99.90;;;;;;4992434;28;20109;-60
2023/11/05 09:02:06;;;;;;;4.43;2.03;;;9.80;99.90;;;;;;4991958;28;20026;-61
2023/11/05 09:04:32;;;;;;;9.18;1.55;;;9.80;99.90;;;;;;4991564;28;20096;-61
2023/11/05 09:06:57;;;;;;;5.43;1.40;;;9.80;99.90;;;;;;4992207;28;20500;-61
2023/11/05 09:09:23;;;;;;;3.38;1.40;;;9.80;99.90;;;;;;4992146;28;20117;-61
2023/11/05 09:11:49;;;;;;;4.60;1.75;;;9.80;99.90;;;;;;4992057;28;20034;-60
2023/11/05 09:14:14;;;;;;;12.38;2.45;;;9.70;99.90;;;;;;4990711;28;20030;-62
2023/11/05 09:16:40;;;;;;;7.55;1.80;;;9.70;99.90;;;;;;4990517;28;20025;-62
2023/11/05 09:19:06;;;;;;;10.27;1.58;;;9.70;99.90;;;;;;4990815;28;20476;-61
2023/11/05 09:21:31;;;;;;;6.13;1.85;;;9.80;99.90;;;;;;4990526;28;20026;-60
2023/11/05 09:23:58;;;;;;;8.30;1.65;;;9.80;99.90;;;;;;4990057;28;20033;-60
2023/11/05 09:26:23;;;;;;;6.85;1.50;;;10.00;99.90;;;;;;4990419;28;20110;-62
2023/11/05 09:28:49;;;;;;;6.82;1.73;;;10.00;99.90;;;;;;4991312;28;20385;-61
2023/11/05 09:31:14;;;;;;;7.40;2.03;;;10.10;99.90;;;;;;4992268;28;20037;-61
2023/11/05 09:33:40;;;;;;;5.35;2.97;;;10.20;99.90;;;;;;5000571;28;20057;-61
2023/11/05 09:36:06;;;;;;;8.35;2.00;;;10.30;99.90;;;;;;5008126;28;20033;-61
2023/11/05 09:38:33;;;;;;;6.38;1.92;;;10.50;99.90;;;;;;5011760;28;20029;-61
2023/11/05 09:40:59;;;;;;;6.55;1.80;;;10.80;99.90;;;;;;5011149;28;20022;-61
2023/11/05 09:43:25;;;;;;;5.82;1.30;;;10.80;99.90;;;;;;5011158;28;20391;-60
2023/11/05 09:45:52;;;;;;;6.45;1.60;;;10.80;99.90;;;;;;5011017;28;20034;-61
2023/11/05 09:48:18;;;;;;;4.80;1.80;;;10.70;99.90;;;;;;5011440;28;20022;-61
2023/11/05 09:50:44;;;;;;;4.25;1.30;;;10.50;99.90;;;;;;5011338;28;20036;-61
2023/11/05 09:53:11;;;;;;;5.68;1.58;;;10.50;99.90;;;;;;5010857;28;20116;-61
2023/11/05 09:55:41;;;;;;;4.35;1.38;;;10.50;99.90;;;;;;5010439;28;20357;-61
2023/11/05 09:58:08;;;;;;;4.90;1.30;;;10.40;99.90;;;;;;5011156;28;20057;-61
2023/11/05 10:00:34;;;;;;;4.72;1.45;;;10.40;99.90;;;;;;5011177;28;20026;-61
2023/11/05 10:03:01;;;;;;;3.28;1.27;;;10.40;99.90;;;;;;5010061;28;20352;-62
2023/11/05 10:05:33;;;;;;;5.32;1.50;;;10.30;99.90;;;;;;5010641;28;20086;-62
2023/11/05 10:07:59;;;;;;;1.90;1.10;;;10.30;99.90;;;;;;5011179;28;20064;-62
2023/11/05 10:10:25;;;;;;;5.18;1.40;;;10.30;99.90;;;;;;5011524;28;20518;-62
2023/11/05 10:12:51;;;;;;;3.78;1.33;;;10.30;99.90;;;;;;5009872;28;20110;-62
2023/11/05 10:15:18;;;;;;;2.53;1.20;;;10.30;99.90;;;;;;5010424;28;20026;-62
2023/11/05 10:17:44;;;;;;;4.78;1.38;;;10.50;99.90;;;;;;5010844;28;20029;-62
2023/11/05 10:20:10;;;;;;;2.85;1.20;;;10.70;99.90;;;;;;5007217;28;20506;-61
2023/11/05 10:22:42;;;;;;;3.53;1.48;;;10.90;99.90;;;;;;5010670;28;20033;-62
2023/11/05 10:25:14;;;;;;;2.83;1.15;;;11.20;99.90;;;;;;5010327;28;20030;-62
2023/11/05 10:27:40;;;;;;;3.90;1.15;;;11.50;99.90;;;;;;5010545;28;20087;-62
2023/11/05 10:30:08;;;;;;;2.47;1.20;;;12.20;99.90;;;;;;5011174;28;20018;-62
2023/11/05 10:32:38;;;;;;;2.80;1.33;;;12.30;99.90;;;;;;5010625;28;20029;-63
2023/11/05 10:35:05;;;;;;;1.63;0.80;;;12.20;99.90;;;;;;5009940;28;20045;-63
2023/11/05 10:37:31;;;;;;;3.95;1.55;;;12.10;99.90;;;;;;5010609;28;20037;-63
2023/11/05 10:39:57;;;;;;;3.53;0.98;;;11.90;99.90;;;;;;5010703;28;20412;-62
2023/11/05 10:42:24;;;;;;;6.32;1.10;;;12.00;99.90;;;;;;5010391;28;20057;-63
2023/11/05 10:44:50;;;;;;;1.50;0.60;;;12.00;99.90;;;;;;5009798;28;20033;-63
2023/11/05 10:47:16;;;;;;;1.55;0.80;;;11.80;99.90;;;;;;5010203;28;20420;-63
2023/11/05 10:49:43;;;;;;;3.85;0.80;;;11.50;99.90;;;;;;5010292;28;20045;-63
2023/11/05 10:52:10;;;;;;;0.85;0.70;;;11.40;99.90;;;;;;5010023;28;20104;-63
2023/11/05 10:54:39;;;;;;;4.50;0.85;;;11.20;99.90;;;;;;5006378;28;20033;-63
2023/11/05 10:57:43;;;;;;;1.30;0.70;;;11.10;99.90;;;;;;5003220;28;20041;-63
2023/11/05 11:00:29;;;;;;;5.53;0.95;;;11.00;99.90;;;;;;5006975;28;20045;-64
2023/11/05 11:02:56;;;;;;;1.73;0.77;;;11.20;99.90;;;;;;4990107;28;20549;-64
2023/11/05 11:05:41;;;;;;;0.55;0.50;;;11.30;99.90;;;;;;5009230;28;20018;-63
2023/11/05 11:08:17;;;;;;;2.53;0.77;;;11.50;99.90;;;;;;5010058;28;20026;-63
2023/11/05 11:10:48;;;;;;;1.73;1.05;;;11.60;99.90;;;;;;4994913;28;20034;-64
2023/11/05 11:13:17;;;;;;;;;;;11.60;99.90;;;;;;5003772;28;20129;-63
2023/11/05 11:15:52;;;;;;;0.52;0.50;;;11.80;99.90;;;;;;5005998;28;19905;-64
2023/11/05 11:18:23;;;;;;;2.00;0.68;;;12.00;99.90;;;;;;5007468;28;20419;-63
2023/11/05 11:20:52;;;;;;;1.13;0.40;;;12.20;99.90;;;;;;5009356;28;20037;-64
2023/11/05 11:23:18;;;;;;;2.95;0.57;;;12.40;99.90;;;;;;5009620;28;20197;-64
2023/11/05 11:26:05;;;;;;;1.08;0.68;;;12.70;99.90;;;;;;5004511;28;20480;-64
2023/11/05 11:28:34;;;;;;;2.15;0.63;;;12.80;99.90;;;;;;5001963;28;20049;-64
2023/11/05 11:31:00;;;;;;;1.27;0.57;;;12.90;99.90;;;;;;5009468;28;20092;-64
2023/11/05 11:33:29;;;;;;;1.42;0.70;;;12.90;99.90;;;;;;5024363;28;20034;-64
2023/11/05 11:35:56;;;;;;;1.98;0.70;;;13.00;99.90;;;;;;5004670;28;20030;-64
2023/11/05 11:38:22;;;;;;;0.98;0.57;;;13.10;99.90;;;;;;5008116;28;20026;-64
2023/11/05 11:40:57;;;;;;;1.80;0.60;;;13.10;99.90;;;;;;5009419;28;20041;-64
2023/11/05 11:43:24;;;;;;;1.33;0.90;;;13.10;99.90;;;;;;5008962;28;20167;-64
2023/11/05 11:45:50;;;;;;;4.43;0.68;;;13.10;99.90;;;;;;5003727;28;20034;-64
2023/11/05 11:48:16;;;;;;;1.95;0.98;;;12.90;99.90;;;;;;5007773;28;20026;-63
2023/11/05 11:50:53;;;;;;;3.20;0.85;;;12.90;99.90;;;;;;5009385;28;20108;-64
2023/11/05 11:53:38;;;;;;;1.08;0.70;;;12.90;99.90;;;;;;5008663;28;20036;-63
2023/11/05 11:56:05;;;;;;;2.40;0.88;;;12.90;99.90;;;;;;5008273;28;20030;-64
2023/11/05 11:58:38;;;;;;;1.33;1.00;;;12.90;99.90;;;;;;5008700;28;20304;-64
2023/11/05 12:01:13;;;;;;;1.88;0.70;;;13.00;99.90;;;;;;5008847;28;20030;-64
2023/11/05 12:03:39;;;;;;;3.08;0.70;;;13.10;99.90;;;;;;5008725;28;20033;-64
2023/11/05 12:06:05;;;;;;;1.55;1.00;;;13.20;99.90;;;;;;5008270;28;20026;-64
2023/11/05 12:08:43;;;;;;;2.72;0.90;;;13.20;99.90;;;;;;5008876;28;20055;-64
2023/11/05 12:11:12;;;;;;;1.65;0.90;;;13.20;99.90;;;;;;5008598;28;20096;-64
2023/11/05 12:13:39;;;;;;;1.88;0.90;;;13.20;99.90;;;;;;5002131;28;20033;-65
2023/11/05 12:16:11;;;;;;;1.63;0.90;;;13.20;99.90;;;;;;5005150;28;20172;-64
2023/11/05 12:18:38;;;;;;;5.78;1.25;;;13.20;99.90;;;;;;5008842;28;20022;-64
2023/11/05 12:21:04;;;;;;;2.20;0.80;;;13.20;99.90;;;;;;5008372;28;20543;-64
2023/11/05 12:23:29;;;;;;;3.38;0.88;;;13.10;99.90;;;;;;5002267;28;20113;-64
2023/11/05 12:26:00;;;;;;;4.68;1.13;;;13.10;99.90;;;;;;5010603;28;20347;-64
2023/11/05 12:28:27;;;;;;;3.70;0.88;;;13.00;99.90;;;;;;5012688;28;20026;-64
2023/11/05 12:30:55;;;;;;;2.22;0.90;;;13.30;99.90;;;;;;5012360;28;20132;-65
2023/11/05 12:33:22;;;;;;;1.40;0.90;;;13.60;99.90;;;;;;5012370;28;20077;-65
2023/11/05 12:35:48;;;;;;;1.75;0.95;;;14.00;99.90;;;;;;5012274;28;20648;-64
2023/11/05 12:38:14;;;;;;;3.47;0.90;;;14.30;99.90;;;;;;5004521;28;20029;-64
2023/11/05 12:40:39;;;;;;;3.47;1.00;;;14.30;99.90;;;;;;5013023;28;20037;-64
2023/11/05 12:43:05;;;;;;;1.52;1.00;;;14.30;99.90;;;;;;5012719;28;20113;-64
2023/11/05 12:45:31;;;;;;;1.77;1.30;;;14.30;99.90;;;;;;5008219;28;20296;-64
2023/11/05 12:47:56;;;;;;;1.77;0.90;;;14.30;99.90;;;;;;5005271;28;20041;-64
2023/11/05 12:50:23;;;;;;;1.45;0.95;;;14.40;99.90;;;;;;4998432;28;20034;-63